createdAt,value
2023-05-19T00:01:57.913Z,4.22
2023-05-19T00:04:28.978Z,5.57
2023-05-19T00:06:59.538Z,4.63
2023-05-19T00:09:28.390Z,9.32
2023-05-19T00:11:57.951Z,3.78
2023-05-19T00:14:26.609Z,4.97
2023-05-19T00:17:02.109Z,2.80
2023-05-19T00:19:32.507Z,5.93
2023-05-19T00:22:00.831Z,4.35
2023-05-19T00:24:29.413Z,7.22
2023-05-19T00:26:57.638Z,6.07
2023-05-19T00:29:25.825Z,4.88
2023-05-19T00:31:54.161Z,6.93
2023-05-19T00:34:22.442Z,7.95
2023-05-19T00:36:52.104Z,8.43
2023-05-19T00:39:20.380Z,11.10
2023-05-19T00:41:48.814Z,10.90
2023-05-19T00:44:17.152Z,10.82
2023-05-19T00:46:45.433Z,8.18
2023-05-19T00:49:13.569Z,9.07
2023-05-19T00:51:42.451Z,5.63
2023-05-19T00:54:12.343Z,6.15
2023-05-19T00:56:40.920Z,5.50
2023-05-19T00:59:09.541Z,9.05
2023-05-19T01:01:38.193Z,8.32
2023-05-19T01:04:10.091Z,5.22
2023-05-19T01:06:39.241Z,7.55
2023-05-19T01:09:07.753Z,6.00
2023-05-19T01:11:37.379Z,7.82
2023-05-19T01:14:06.200Z,13.57
2023-05-19T01:16:42.103Z,12.75
2023-05-19T01:19:25.744Z,17.85
2023-05-19T01:22:29.003Z,11.65
2023-05-19T01:25:33.148Z,14.13
2023-05-19T01:28:40.961Z,19.70
2023-05-19T01:31:12.137Z,14.88
2023-05-19T01:33:42.456Z,17.60
2023-05-19T01:36:13.650Z,16.08
2023-05-19T01:38:43.214Z,25.48
2023-05-19T01:41:12.759Z,19.27
2023-05-19T01:43:42.126Z,14.68
2023-05-19T01:46:12.232Z,21.05
2023-05-19T01:48:40.816Z,23.17
2023-05-19T01:51:09.324Z,19.90
2023-05-19T01:53:37.751Z,20.23
2023-05-19T01:56:07.765Z,18.45
2023-05-19T01:58:43.116Z,21.02
2023-05-19T02:01:21.330Z,26.70
2023-05-19T02:04:05.952Z,20.75
2023-05-19T02:06:43.807Z,25.23
2023-05-19T02:09:17.028Z,24.25
2023-05-19T02:11:51.661Z,28.35
2023-05-19T02:14:26.303Z,19.67
2023-05-19T02:16:58.742Z,20.08
2023-05-19T02:19:28.577Z,29.73
2023-05-19T02:21:57.637Z,24.40
2023-05-19T02:24:26.152Z,20.75
2023-05-19T02:26:55.178Z,35.17
2023-05-19T02:29:23.788Z,26.05
2023-05-19T02:31:52.035Z,30.02
2023-05-19T02:34:22.258Z,36.10
2023-05-19T02:36:50.743Z,35.67
2023-05-19T02:39:19.476Z,29.40
2023-05-19T02:41:47.706Z,27.63
2023-05-19T02:44:16.138Z,24.27
2023-05-19T02:46:44.492Z,33.42
2023-05-19T02:49:12.817Z,32.90
2023-05-19T02:51:42.410Z,30.38
2023-05-19T02:54:10.745Z,30.05
2023-05-19T02:56:39.083Z,26.98
2023-05-19T02:59:07.429Z,28.33
2023-05-19T03:01:37.888Z,36.17
2023-05-19T03:04:06.775Z,25.45
2023-05-19T03:06:35.183Z,25.00
2023-05-19T03:09:05.021Z,25.30
2023-05-19T03:11:33.336Z,35.15
2023-05-19T03:14:01.720Z,41.30
2023-05-19T03:16:29.995Z,33.80
2023-05-19T03:18:58.299Z,31.23
2023-05-19T03:21:26.586Z,21.10
2023-05-19T03:23:55.691Z,31.45
2023-05-19T03:26:25.523Z,25.83
2023-05-19T03:28:54.402Z,25.13
2023-05-19T03:31:22.687Z,30.38
2023-05-19T03:33:50.945Z,28.63
2023-05-19T03:36:19.203Z,40.42
2023-05-19T03:38:47.392Z,35.50
2023-05-19T03:41:15.918Z,28.92
2023-05-19T03:43:45.588Z,22.05
2023-05-19T03:46:13.828Z,28.98
2023-05-19T03:48:42.622Z,29.98
2023-05-19T03:51:10.953Z,22.98
2023-05-19T03:53:39.166Z,27.77
2023-05-19T03:56:08.163Z,34.78
2023-05-19T03:58:37.088Z,28.73
2023-05-19T04:01:06.781Z,30.08
2023-05-19T04:03:35.086Z,28.38
2023-05-19T04:06:03.249Z,38.78
2023-05-19T04:08:31.498Z,22.00
2023-05-19T04:10:59.966Z,27.48
2023-05-19T04:13:28.658Z,28.33
2023-05-19T04:15:57.004Z,22.23
2023-05-19T04:18:28.821Z,28.50
2023-05-19T04:20:57.450Z,27.08
2023-05-19T04:23:25.766Z,29.27
2023-05-19T04:25:54.606Z,25.13
2023-05-19T04:28:24.004Z,23.95
2023-05-19T04:30:52.392Z,40.85
2023-05-19T04:33:21.567Z,21.98
2023-05-19T04:35:51.846Z,22.35
2023-05-19T04:38:20.337Z,30.17
2023-05-19T04:40:50.456Z,25.83
2023-05-19T04:43:19.396Z,27.95
2023-05-19T04:45:50.321Z,28.70
2023-05-19T04:48:19.180Z,28.15
2023-05-19T04:50:48.936Z,32.67
2023-05-19T04:53:19.003Z,31.02
2023-05-19T04:55:47.224Z,31.38
2023-05-19T04:58:17.156Z,28.17
2023-05-19T05:00:45.573Z,37.63
2023-05-19T05:03:14.693Z,28.27
2023-05-19T05:05:43.129Z,30.85
2023-05-19T05:08:11.846Z,27.20
2023-05-19T05:10:41.475Z,22.75
2023-05-19T05:13:11.732Z,35.42
2023-05-19T05:15:40.744Z,27.33
2023-05-19T05:18:09.777Z,29.20
2023-05-19T05:20:38.918Z,30.02
2023-05-19T05:23:09.769Z,32.08
2023-05-19T05:25:39.496Z,35.70
2023-05-19T05:28:09.222Z,26.25
2023-05-19T05:30:37.717Z,25.95
2023-05-19T05:33:06.519Z,26.92
2023-05-19T05:35:35.044Z,34.80
2023-05-19T05:38:04.061Z,31.52
2023-05-19T05:40:32.337Z,26.90
2023-05-19T05:43:00.764Z,31.48
2023-05-19T05:45:30.543Z,26.75
2023-05-19T05:47:59.584Z,29.88
2023-05-19T05:50:28.678Z,37.22
2023-05-19T05:52:58.897Z,32.55
2023-05-19T05:55:27.953Z,30.98
2023-05-19T05:57:57.126Z,25.63
2023-05-19T06:00:28.145Z,25.65
2023-05-19T06:02:59.294Z,27.30
2023-05-19T06:05:27.820Z,33.35
2023-05-19T06:07:56.402Z,24.30
2023-05-19T06:10:24.927Z,20.85
2023-05-19T06:12:53.316Z,24.35
2023-05-19T06:15:23.551Z,30.63
2023-05-19T06:17:51.831Z,29.70
2023-05-19T06:20:21.713Z,35.00
2023-05-19T06:22:49.967Z,29.38
2023-05-19T06:25:18.321Z,23.45
2023-05-19T06:27:46.601Z,27.30
2023-05-19T06:30:15.454Z,32.97
2023-05-19T06:32:43.818Z,29.90
2023-05-19T06:35:12.035Z,32.28
2023-05-19T06:37:41.642Z,27.15
2023-05-19T06:40:10.929Z,30.00
2023-05-19T06:42:39.245Z,32.20
2023-05-19T06:45:09.084Z,29.75
2023-05-19T06:47:37.254Z,32.72
2023-05-19T06:50:06.207Z,28.55
2023-05-19T06:52:34.465Z,31.50
2023-05-19T06:55:04.150Z,31.58
2023-05-19T06:57:32.331Z,28.10
2023-05-19T07:00:00.558Z,31.65
2023-05-19T07:02:28.979Z,26.70
2023-05-19T07:04:57.583Z,28.15
2023-05-19T07:07:26.853Z,25.52
2023-05-19T07:09:55.151Z,26.85
2023-05-19T07:12:26.727Z,31.88
2023-05-19T07:17:23.136Z,29.80
2023-05-19T07:19:51.407Z,26.35
2023-05-19T07:22:19.648Z,22.17
2023-05-19T07:24:48.593Z,25.33
2023-05-19T07:27:16.774Z,34.53
2023-05-19T07:29:46.464Z,33.88
2023-05-19T07:32:14.688Z,26.50
2023-05-19T07:34:42.954Z,27.63
2023-05-19T07:37:11.226Z,23.80
2023-05-19T07:39:39.543Z,28.40
2023-05-19T07:42:07.866Z,29.40
2023-05-19T07:44:35.985Z,26.30
2023-05-19T07:47:05.819Z,27.05
2023-05-19T07:49:34.095Z,22.73
2023-05-19T07:52:02.471Z,28.17
2023-05-19T07:54:30.742Z,23.15
2023-05-19T07:56:59.090Z,28.42
2023-05-19T07:59:27.408Z,38.10
2023-05-19T08:01:56.048Z,27.63
2023-05-19T08:04:25.753Z,25.88
2023-05-19T08:06:55.188Z,25.63
2023-05-19T08:09:23.321Z,21.55
2023-05-19T08:11:51.584Z,24.92
2023-05-19T08:14:22.434Z,27.42
2023-05-19T08:16:51.031Z,23.63
2023-05-19T08:19:19.523Z,25.42
2023-05-19T08:21:49.754Z,26.73
2023-05-19T08:24:17.967Z,31.35
2023-05-19T08:26:46.140Z,19.77
2023-05-19T08:29:14.435Z,26.52
2023-05-19T08:31:42.685Z,26.70
2023-05-19T08:34:10.948Z,18.90
2023-05-19T08:36:39.272Z,28.13
2023-05-19T08:39:09.159Z,23.80
2023-05-19T08:41:37.651Z,21.85
2023-05-19T08:44:06.433Z,23.40
2023-05-19T08:46:35.166Z,15.23
2023-05-19T08:49:09.778Z,23.67
2023-05-19T08:51:43.922Z,25.50
2023-05-19T08:54:18.200Z,34.38
2023-05-19T08:56:46.632Z,28.60
2023-05-19T08:59:15.995Z,23.63
2023-05-19T09:01:46.546Z,22.30
2023-05-19T09:04:15.443Z,24.47
2023-05-19T09:06:45.366Z,22.42
2023-05-19T09:09:15.689Z,21.73
2023-05-19T09:11:47.341Z,34.42
2023-05-19T09:14:15.634Z,27.23
2023-05-19T09:16:44.626Z,30.77
2023-05-19T09:19:16.725Z,28.15
2023-05-19T09:21:45.954Z,30.23
2023-05-19T09:24:15.969Z,20.30
2023-05-19T09:26:44.543Z,26.40
2023-05-19T09:29:14.044Z,23.02
2023-05-19T09:31:50.643Z,24.13
2023-05-19T09:34:19.320Z,21.98
2023-05-19T09:36:50.965Z,18.58
2023-05-19T09:39:22.118Z,22.52
2023-05-19T09:41:54.062Z,21.73
2023-05-19T09:44:29.149Z,19.98
2023-05-19T09:46:58.376Z,23.75
2023-05-19T09:49:29.686Z,17.10
2023-05-19T09:54:29.713Z,26.77
2023-05-19T09:57:00.144Z,18.85
2023-05-19T09:59:32.955Z,16.05
2023-05-19T10:02:03.429Z,18.88
2023-05-19T10:04:32.590Z,23.73
2023-05-19T10:07:01.033Z,19.45
2023-05-19T10:09:30.955Z,21.50
2023-05-19T10:12:00.329Z,16.10
2023-05-19T10:14:30.269Z,24.77
2023-05-19T10:17:00.144Z,18.35
2023-05-19T10:19:29.934Z,26.73
2023-05-19T10:21:58.900Z,29.02
2023-05-19T10:24:27.792Z,20.98
2023-05-19T10:27:04.551Z,19.05
2023-05-19T10:29:36.014Z,15.05
2023-05-19T10:32:09.873Z,23.10
2023-05-19T10:35:01.096Z,20.42
2023-05-19T10:37:38.695Z,14.85
2023-05-19T10:40:13.762Z,19.83
2023-05-19T10:43:01.164Z,17.05
2023-05-19T10:45:36.107Z,23.25
2023-05-19T10:48:04.718Z,21.27
2023-05-19T10:50:38.381Z,24.00
2023-05-19T10:53:15.273Z,26.02
2023-05-19T10:55:48.747Z,20.67
2023-05-19T10:58:38.387Z,16.52
2023-05-19T11:01:10.548Z,12.82
2023-05-19T11:03:47.928Z,21.35
2023-05-19T11:06:25.926Z,16.15
2023-05-19T11:08:55.642Z,16.55
2023-05-19T11:11:24.021Z,31.92
2023-05-19T11:13:56.806Z,19.10
2023-05-19T11:16:29.844Z,17.27
2023-05-19T11:19:01.659Z,17.77
2023-05-19T11:21:43.928Z,19.67
2023-05-19T11:24:12.203Z,19.48
2023-05-19T11:26:44.324Z,16.85
2023-05-19T11:29:14.530Z,22.95
2023-05-19T11:31:45.047Z,21.50
2023-05-19T11:34:13.977Z,16.87
2023-05-19T11:36:44.163Z,22.50
2023-05-19T11:39:13.630Z,19.70
2023-05-19T11:41:41.883Z,19.90
2023-05-19T11:44:13.316Z,19.98
2023-05-19T11:49:10.657Z,16.58
2023-05-19T11:51:39.705Z,21.48
2023-05-19T11:54:08.411Z,16.05
2023-05-19T11:56:41.008Z,15.38
2023-05-19T11:59:09.596Z,12.95
2023-05-19T12:01:39.418Z,10.45
2023-05-19T12:04:10.581Z,14.98
2023-05-19T12:06:38.998Z,19.45
2023-05-19T12:09:07.470Z,15.18
2023-05-19T12:11:36.093Z,14.10
2023-05-19T12:14:04.339Z,15.57
2023-05-19T12:16:35.867Z,18.45
2023-05-19T12:19:07.468Z,11.95
2023-05-19T12:21:35.850Z,13.95
2023-05-19T12:24:06.235Z,16.20
2023-05-19T12:26:34.977Z,18.23
2023-05-19T12:29:03.449Z,21.70
2023-05-19T12:31:31.740Z,13.88
2023-05-19T12:34:01.744Z,16.15
2023-05-19T12:36:33.637Z,24.90
2023-05-19T12:39:01.928Z,16.88
2023-05-19T12:41:30.795Z,18.63
2023-05-19T12:43:59.012Z,23.17
2023-05-19T12:46:27.252Z,17.52
2023-05-19T12:49:00.880Z,17.38
2023-05-19T12:51:30.503Z,16.80
2023-05-19T12:53:59.068Z,19.27
2023-05-19T12:56:28.552Z,17.00
2023-05-19T12:58:56.751Z,14.98
2023-05-19T13:01:25.493Z,16.83
2023-05-19T13:03:54.074Z,14.13
2023-05-19T13:06:22.619Z,20.40
2023-05-19T13:08:57.149Z,20.10
2023-05-19T13:11:25.349Z,9.02
2023-05-19T13:13:53.628Z,19.38
2023-05-19T13:16:21.962Z,11.77
2023-05-19T13:18:50.220Z,13.50
2023-05-19T13:21:18.645Z,10.38
2023-05-19T13:23:46.973Z,12.80
2023-05-19T13:26:16.697Z,17.15
2023-05-19T13:28:45.050Z,16.45
2023-05-19T13:31:14.547Z,20.70
2023-05-19T13:33:42.746Z,23.77
2023-05-19T13:36:10.997Z,17.90
2023-05-19T13:38:40.421Z,15.35
2023-05-19T13:41:10.859Z,18.70
2023-05-19T13:43:40.637Z,12.13
2023-05-19T13:46:09.065Z,11.50
2023-05-19T13:48:37.609Z,15.38
2023-05-19T13:51:06.504Z,12.55
2023-05-19T13:53:34.764Z,15.25
2023-05-19T13:56:03.619Z,21.73
2023-05-19T13:58:32.181Z,17.38
2023-05-19T14:01:02.047Z,16.10
2023-05-19T14:03:30.753Z,20.73
2023-05-19T14:05:59.064Z,14.43
2023-05-19T14:08:27.248Z,11.25
2023-05-19T14:10:57.241Z,15.50
2023-05-19T14:13:33.005Z,17.98
2023-05-19T14:16:05.388Z,17.67
2023-05-19T14:18:33.690Z,17.70
2023-05-19T14:21:01.878Z,15.50
2023-05-19T14:23:30.457Z,8.52
2023-05-19T14:25:58.791Z,15.23
2023-05-19T14:28:27.093Z,17.38
2023-05-19T14:30:55.405Z,15.20
2023-05-19T14:33:25.092Z,19.35
2023-05-19T14:35:53.749Z,11.60
2023-05-19T14:38:22.004Z,16.42
2023-05-19T14:40:50.284Z,13.63
2023-05-19T14:43:18.520Z,12.90
2023-05-19T14:45:46.957Z,12.90
2023-05-19T14:48:15.328Z,15.00
2023-05-19T14:50:45.124Z,22.67
2023-05-19T14:53:13.823Z,12.20
2023-05-19T14:55:42.183Z,16.38
2023-05-19T14:58:26.840Z,14.15
2023-05-19T15:00:58.416Z,13.98
2023-05-19T15:03:26.677Z,11.15
2023-05-19T15:05:56.293Z,11.45
2023-05-19T15:08:24.675Z,10.82
2023-05-19T15:10:52.956Z,17.70
2023-05-19T15:13:21.678Z,13.57
2023-05-19T15:15:49.901Z,16.77
2023-05-19T15:18:18.913Z,15.88
2023-05-19T15:20:47.706Z,21.50
2023-05-19T15:23:17.432Z,22.20
2023-05-19T15:25:46.364Z,38.70
2023-05-19T15:28:16.889Z,21.05
2023-05-19T15:30:45.794Z,18.90
2023-05-19T15:33:14.128Z,13.02
2023-05-19T15:35:42.447Z,26.00
2023-05-19T15:38:11.075Z,19.38
2023-05-19T15:40:42.964Z,15.80
2023-05-19T15:43:11.140Z,17.45
2023-05-19T15:45:39.417Z,18.45
2023-05-19T15:48:08.113Z,17.42
2023-05-19T15:50:37.273Z,17.85
2023-05-19T15:53:07.778Z,18.70
2023-05-19T15:55:36.061Z,15.88
2023-05-19T15:58:05.743Z,15.45
2023-05-19T16:00:34.246Z,16.50
2023-05-19T16:03:02.733Z,15.73
2023-05-19T16:05:31.123Z,18.13
2023-05-19T16:07:59.428Z,20.05
2023-05-19T16:10:27.744Z,21.40
2023-05-19T16:12:55.904Z,21.67
2023-05-19T16:15:25.675Z,15.80
2023-05-19T16:17:55.113Z,17.42
2023-05-19T16:20:27.955Z,15.48
2023-05-19T16:22:56.320Z,13.00
2023-05-19T16:25:24.927Z,19.13
2023-05-19T16:27:53.714Z,22.10
2023-05-19T16:30:22.874Z,22.70
2023-05-19T16:32:53.824Z,16.63
2023-05-19T16:35:22.316Z,13.98
2023-05-19T16:37:50.601Z,21.48
2023-05-19T16:40:19.013Z,16.90
2023-05-19T16:42:47.221Z,19.42
2023-05-19T16:45:17.437Z,22.67
2023-05-19T16:47:45.742Z,14.02
2023-05-19T16:50:15.349Z,22.58
2023-05-19T16:52:43.621Z,13.30
2023-05-19T16:55:16.777Z,15.23
2023-05-19T16:57:44.856Z,17.35
2023-05-19T17:00:14.309Z,14.23
2023-05-19T17:02:45.512Z,13.68
2023-05-19T17:05:15.234Z,12.13
2023-05-19T17:07:43.499Z,18.40
2023-05-19T17:10:12.316Z,15.13
2023-05-19T17:12:40.652Z,12.55
2023-05-19T17:15:09.660Z,17.25
2023-05-19T17:17:37.911Z,11.68
2023-05-19T17:20:07.227Z,25.98
2023-05-19T17:22:37.189Z,27.95
2023-05-19T17:25:06.002Z,20.60
2023-05-19T17:27:34.150Z,18.33
2023-05-19T17:30:02.396Z,11.75
2023-05-19T17:32:35.930Z,23.08
2023-05-19T17:35:06.705Z,17.88
2023-05-19T17:37:36.507Z,17.00
2023-05-19T17:40:05.058Z,18.13
2023-05-19T17:42:33.348Z,15.18
2023-05-19T17:45:01.762Z,16.40
2023-05-19T17:47:30.115Z,16.13
2023-05-19T17:49:58.309Z,17.10
2023-05-19T17:52:27.033Z,23.77
2023-05-19T17:54:57.226Z,18.52
2023-05-19T17:57:27.160Z,15.20
2023-05-19T17:59:55.991Z,18.35
2023-05-19T18:02:24.685Z,16.88
2023-05-19T18:04:53.526Z,13.50
2023-05-19T18:07:25.705Z,14.43
2023-05-19T18:09:56.518Z,20.98
2023-05-19T18:12:26.340Z,13.43
2023-05-19T18:14:54.602Z,20.98
2023-05-19T18:17:22.841Z,14.27
2023-05-19T18:19:51.078Z,14.98
2023-05-19T18:22:19.382Z,15.30
2023-05-19T18:24:47.646Z,22.58
2023-05-19T18:27:15.851Z,14.50
2023-05-19T18:29:45.544Z,23.05
2023-05-19T18:32:14.757Z,12.02
2023-05-19T18:34:43.076Z,14.77
2023-05-19T18:37:11.224Z,9.93
2023-05-19T18:39:39.472Z,15.27
2023-05-19T18:42:07.854Z,20.98
2023-05-19T18:44:36.048Z,14.48
2023-05-19T18:47:06.160Z,16.20
2023-05-19T18:49:34.385Z,13.70
2023-05-19T18:52:02.610Z,13.02
2023-05-19T18:54:32.621Z,13.27
2023-05-19T18:57:02.820Z,23.33
2023-05-19T18:59:31.143Z,14.50
2023-05-19T19:01:59.377Z,19.83
2023-05-19T19:04:29.079Z,13.98
2023-05-19T19:06:57.333Z,14.02
2023-05-19T19:09:25.692Z,12.10
2023-05-19T19:11:53.989Z,20.17
2023-05-19T19:14:22.694Z,14.02
2023-05-19T19:16:50.943Z,13.32
2023-05-19T19:19:19.317Z,16.15
2023-05-19T19:21:49.073Z,15.48
2023-05-19T19:24:17.448Z,13.48
2023-05-19T19:26:45.666Z,12.77
2023-05-19T19:29:13.860Z,15.82
2023-05-19T19:31:42.275Z,17.35
2023-05-19T19:34:11.323Z,13.18
2023-05-19T19:36:39.561Z,13.73
2023-05-19T19:39:09.612Z,12.88
2023-05-19T19:41:37.812Z,18.92
2023-05-19T19:44:06.486Z,18.40
2023-05-19T19:46:34.975Z,16.90
2023-05-19T19:49:03.218Z,14.57
2023-05-19T19:51:31.648Z,17.48
2023-05-19T19:54:00.193Z,19.08
2023-05-19T19:56:29.956Z,24.20
2023-05-19T19:58:59.202Z,19.48
2023-05-19T20:01:28.300Z,13.63
2023-05-19T20:04:13.628Z,21.15
2023-05-19T20:06:42.043Z,16.35
2023-05-19T20:09:10.555Z,16.58
2023-05-19T20:11:40.228Z,15.75
2023-05-19T20:14:08.451Z,28.27
2023-05-19T20:16:36.788Z,18.42
2023-05-19T20:19:06.679Z,21.75
2023-05-19T20:21:36.109Z,26.75
2023-05-19T20:24:04.777Z,21.95
2023-05-19T20:26:32.973Z,17.15
2023-05-19T20:29:02.703Z,22.98
2023-05-19T20:31:30.985Z,19.70
2023-05-19T20:34:00.785Z,20.35
2023-05-19T20:36:30.098Z,20.13
2023-05-19T20:38:58.434Z,20.38
2023-05-19T20:41:26.805Z,22.65
2023-05-19T20:43:55.210Z,17.65
2023-05-19T20:46:25.121Z,19.33
2023-05-19T20:48:53.494Z,15.30
2023-05-19T20:51:25.350Z,18.75
2023-05-19T20:53:53.759Z,22.50
2023-05-19T20:56:22.440Z,14.63
2023-05-19T20:58:50.727Z,24.35
2023-05-19T21:01:19.127Z,14.23
2023-05-19T21:03:48.728Z,25.77
2023-05-19T21:06:17.112Z,19.08
2023-05-19T21:08:45.309Z,19.05
2023-05-19T21:11:13.499Z,17.13
2023-05-19T21:13:41.845Z,20.38
2023-05-19T21:16:10.063Z,18.17
2023-05-19T21:18:38.293Z,23.98
2023-05-19T21:21:08.026Z,13.63
2023-05-19T21:23:36.249Z,28.92
2023-05-19T21:26:04.924Z,24.05
2023-05-19T21:28:33.378Z,16.30
2023-05-19T21:31:01.663Z,16.77
2023-05-19T21:33:30.133Z,19.38
2023-05-19T21:36:00.495Z,20.00
2023-05-19T21:38:30.094Z,15.02
2023-05-19T21:40:58.492Z,18.83
2023-05-19T21:43:26.845Z,13.32
2023-05-19T21:45:55.491Z,19.13
2023-05-19T21:48:23.703Z,15.93
2023-05-19T21:50:54.716Z,21.17
2023-05-19T21:53:23.130Z,30.05
2023-05-19T21:55:52.626Z,25.30
2023-05-19T21:58:20.991Z,19.15
2023-05-19T22:00:53.193Z,19.42
2023-05-19T22:03:21.945Z,16.27
2023-05-19T22:05:50.679Z,15.43
2023-05-19T22:08:19.825Z,24.23
2023-05-19T22:10:51.041Z,24.15
2023-05-19T22:13:20.915Z,19.40
2023-05-19T22:15:49.289Z,23.33
2023-05-19T22:18:17.974Z,15.30
2023-05-19T22:20:46.223Z,17.92
2023-05-19T22:23:14.654Z,13.27
2023-05-19T22:25:42.965Z,17.80
2023-05-19T22:28:11.334Z,15.77
2023-05-19T22:30:42.305Z,17.73
2023-05-19T22:33:11.374Z,21.27
2023-05-19T22:35:39.781Z,20.65
2023-05-19T22:38:10.313Z,15.93
2023-05-19T22:40:39.097Z,15.70
2023-05-19T22:43:07.339Z,14.88
2023-05-19T22:45:36.116Z,12.65
2023-05-19T22:48:06.828Z,20.58
2023-05-19T22:50:35.068Z,19.88
2023-05-19T22:53:03.414Z,14.38
2023-05-19T22:55:32.394Z,17.45
2023-05-19T22:58:00.946Z,17.48
2023-05-19T23:00:29.170Z,18.15
2023-05-19T23:02:58.491Z,18.58
2023-05-19T23:05:28.233Z,17.20
2023-05-19T23:07:56.487Z,22.33
2023-05-19T23:10:24.739Z,17.15
2023-05-19T23:12:53.656Z,18.05
2023-05-19T23:15:21.959Z,18.17
2023-05-19T23:17:50.454Z,14.00
2023-05-19T23:20:18.807Z,14.82
2023-05-19T23:22:48.497Z,18.48
2023-05-19T23:25:16.811Z,19.83
2023-05-19T23:27:46.642Z,15.07
2023-05-19T23:30:15.307Z,19.05
2023-05-19T23:32:43.652Z,19.92
2023-05-19T23:35:13.283Z,19.95
2023-05-19T23:37:41.576Z,15.82
2023-05-19T23:40:12.162Z,18.52
2023-05-19T23:42:40.530Z,23.33
2023-05-19T23:45:09.844Z,18.83
2023-05-19T23:47:38.300Z,25.17
2023-05-19T23:50:06.892Z,18.65
2023-05-19T23:52:35.225Z,19.13
2023-05-19T23:55:03.805Z,24.08
2023-05-19T23:57:33.481Z,16.17
